createdAt,value
2017-03-23T00:00:33.473Z,1005.18
2017-03-23T00:01:34.909Z,1005.19
2017-03-23T00:02:36.329Z,1005.16
2017-03-23T00:03:37.751Z,1005.18
2017-03-23T00:04:39.177Z,1005.18
2017-03-23T00:05:40.601Z,1005.14
2017-03-23T00:06:42.036Z,1005.17
2017-03-23T00:07:43.457Z,1005.16
2017-03-23T00:08:44.880Z,1005.16
2017-03-23T00:09:46.302Z,1005.20
2017-03-23T00:10:47.731Z,1005.18
2017-03-23T00:11:49.157Z,1005.22
2017-03-23T00:12:50.581Z,1005.21
2017-03-23T00:13:52.010Z,1005.18
2017-03-23T00:14:53.434Z,1005.17
2017-03-23T00:15:54.882Z,1005.11
2017-03-23T00:16:56.295Z,1005.16
2017-03-23T00:17:57.722Z,1005.15
2017-03-23T00:18:59.147Z,1005.19
2017-03-23T00:20:00.599Z,1005.14
2017-03-23T00:21:02.026Z,1005.12
2017-03-23T00:22:03.446Z,1005.11
2017-03-23T00:23:04.940Z,1005.12
2017-03-23T00:24:06.367Z,1005.13
2017-03-23T00:25:07.787Z,1005.09
2017-03-23T00:26:09.219Z,1005.05
2017-03-23T00:27:10.679Z,1005.10
2017-03-23T00:28:12.104Z,1005.11
2017-03-23T00:29:13.526Z,1005.14
2017-03-23T00:30:14.969Z,1005.11
2017-03-23T00:31:16.399Z,1005.10
2017-03-23T00:32:17.832Z,1005.10
2017-03-23T00:33:19.254Z,1005.06
2017-03-23T00:34:20.681Z,1005.08
2017-03-23T00:35:22.101Z,1005.07
2017-03-23T00:36:23.529Z,1005.00
2017-03-23T00:37:24.950Z,1005.00
2017-03-23T00:38:26.378Z,1005.04
2017-03-23T00:39:27.807Z,1004.99
2017-03-23T00:40:29.235Z,1005.03
2017-03-23T00:41:30.656Z,1005.09
2017-03-23T00:42:32.081Z,1005.06
2017-03-23T00:43:33.509Z,1005.10
2017-03-23T00:44:34.928Z,1005.10
2017-03-23T00:45:36.365Z,1005.09
2017-03-23T00:46:37.794Z,1005.11
2017-03-23T00:47:39.222Z,1005.06
2017-03-23T00:48:40.643Z,1005.05
2017-03-23T00:49:42.068Z,1005.04
2017-03-23T00:50:43.492Z,1005.02
2017-03-23T00:51:44.922Z,1005.03
2017-03-23T00:52:46.340Z,1005.00
2017-03-23T00:53:47.769Z,1005.00
2017-03-23T00:54:49.188Z,1005.01
2017-03-23T00:55:50.611Z,1004.97
2017-03-23T00:56:52.040Z,1005.04
2017-03-23T00:57:53.473Z,1005.00
2017-03-23T00:58:54.891Z,1005.02
2017-03-23T00:59:56.326Z,1005.07
2017-03-23T01:00:57.782Z,1005.07
2017-03-23T01:01:59.167Z,1005.07
2017-03-23T01:03:00.588Z,1005.06
2017-03-23T01:04:02.007Z,1005.04
2017-03-23T01:05:03.439Z,1005.05
2017-03-23T01:06:04.870Z,1005.03
2017-03-23T01:07:06.292Z,1005.03
2017-03-23T01:08:07.714Z,1005.05
2017-03-23T01:09:09.147Z,1005.03
2017-03-23T01:10:10.560Z,1005.06
2017-03-23T01:11:11.991Z,1005.08
2017-03-23T01:12:13.408Z,1005.06
2017-03-23T01:13:14.827Z,1005.02
2017-03-23T01:14:16.247Z,1005.03
2017-03-23T01:15:17.674Z,1004.97
2017-03-23T01:16:19.092Z,1004.98
2017-03-23T01:17:20.576Z,1005.00
2017-03-23T01:18:21.995Z,1004.95
2017-03-23T01:19:23.421Z,1004.90
2017-03-23T01:20:24.839Z,1004.88
2017-03-23T01:21:26.280Z,1004.86
2017-03-23T01:22:27.698Z,1004.82
2017-03-23T01:23:29.122Z,1004.77
2017-03-23T01:24:30.607Z,1004.81
2017-03-23T01:25:32.034Z,1004.85
2017-03-23T01:26:33.459Z,1004.82
2017-03-23T01:27:34.890Z,1004.79
2017-03-23T01:28:36.308Z,1004.81
2017-03-23T01:29:37.730Z,1004.76
2017-03-23T01:30:39.149Z,1004.70
2017-03-23T01:31:40.576Z,1004.72
2017-03-23T01:32:41.997Z,1004.70
2017-03-23T01:33:43.420Z,1004.69
2017-03-23T01:34:44.849Z,1004.76
2017-03-23T01:35:46.270Z,1004.72
2017-03-23T01:36:47.691Z,1004.71
2017-03-23T01:37:49.111Z,1004.69
2017-03-23T01:38:50.539Z,1004.72
2017-03-23T01:39:51.961Z,1004.74
2017-03-23T01:40:53.396Z,1004.70
2017-03-23T01:41:54.820Z,1004.67
2017-03-23T01:42:56.241Z,1004.62
2017-03-23T01:43:57.662Z,1004.68
2017-03-23T01:44:59.086Z,1004.69
2017-03-23T01:46:00.510Z,1004.72
2017-03-23T01:47:01.938Z,1004.69
2017-03-23T01:48:03.367Z,1004.72
2017-03-23T01:49:04.781Z,1004.66
2017-03-23T01:50:06.206Z,1004.67
2017-03-23T01:51:07.631Z,1004.68
2017-03-23T01:52:09.052Z,1004.68
2017-03-23T01:53:10.477Z,1004.74
2017-03-23T01:54:11.899Z,1004.72
2017-03-23T01:55:13.323Z,1004.74
2017-03-23T01:56:14.745Z,1004.75
2017-03-23T01:57:16.167Z,1004.79
2017-03-23T01:58:17.592Z,1004.73
2017-03-23T01:59:19.015Z,1004.80
2017-03-23T02:00:20.444Z,1004.76
2017-03-23T02:01:21.868Z,1004.73
2017-03-23T02:02:23.289Z,1004.79
2017-03-23T02:03:24.716Z,1004.74
2017-03-23T02:04:26.140Z,1004.69
2017-03-23T02:05:27.569Z,1004.74
2017-03-23T02:06:29.022Z,1004.76
2017-03-23T02:07:30.406Z,1004.75
2017-03-23T02:08:31.824Z,1004.75
2017-03-23T02:09:33.244Z,1004.75
2017-03-23T02:10:34.669Z,1004.76
2017-03-23T02:11:36.089Z,1004.76
2017-03-23T02:12:37.509Z,1004.83
2017-03-23T02:13:38.932Z,1004.81
2017-03-23T02:14:40.361Z,1004.78
2017-03-23T02:15:41.788Z,1004.78
2017-03-23T02:16:43.207Z,1004.84
2017-03-23T02:17:44.631Z,1004.82
2017-03-23T02:18:46.052Z,1004.81
2017-03-23T02:19:47.481Z,1004.82
2017-03-23T02:20:48.902Z,1004.85
2017-03-23T02:21:50.331Z,1004.85
2017-03-23T02:22:51.753Z,1004.83
2017-03-23T02:23:53.179Z,1004.87
2017-03-23T02:24:54.597Z,1004.80
2017-03-23T02:25:56.019Z,1004.86
2017-03-23T02:26:57.439Z,1004.84
2017-03-23T02:27:58.859Z,1004.81
2017-03-23T02:29:00.275Z,1004.84
2017-03-23T02:30:01.711Z,1004.84
2017-03-23T02:31:03.131Z,1004.80
2017-03-23T02:32:04.549Z,1004.73
2017-03-23T02:33:05.980Z,1004.76
2017-03-23T02:34:07.402Z,1004.76
2017-03-23T02:35:08.820Z,1004.75
2017-03-23T02:36:10.242Z,1004.75
2017-03-23T02:37:11.665Z,1004.77
2017-03-23T02:38:13.082Z,1004.76
2017-03-23T02:39:14.505Z,1004.75
2017-03-23T02:40:15.930Z,1004.75
2017-03-23T02:41:17.352Z,1004.76
2017-03-23T02:42:18.776Z,1004.77
2017-03-23T02:43:20.197Z,1004.77
2017-03-23T02:44:21.618Z,1004.77
2017-03-23T02:45:23.049Z,1004.77
2017-03-23T02:46:24.468Z,1004.78
2017-03-23T02:47:25.891Z,1004.80
2017-03-23T02:48:27.318Z,1004.79
2017-03-23T02:49:28.740Z,1004.73
2017-03-23T02:50:30.171Z,1004.79
2017-03-23T02:51:31.587Z,1004.76
2017-03-23T02:52:33.007Z,1004.75
2017-03-23T02:53:34.428Z,1004.76
2017-03-23T02:54:35.851Z,1004.76
2017-03-23T02:55:37.274Z,1004.76
2017-03-23T02:56:38.704Z,1004.72
2017-03-23T02:57:40.125Z,1004.72
2017-03-23T02:58:41.554Z,1004.70
2017-03-23T02:59:42.971Z,1004.60
2017-03-23T03:00:44.419Z,1004.58
2017-03-23T03:01:45.842Z,1004.56
2017-03-23T03:02:47.262Z,1004.55
2017-03-23T03:03:48.687Z,1004.52
2017-03-23T03:04:50.111Z,1004.49
2017-03-23T03:05:51.534Z,1004.49
2017-03-23T03:06:52.961Z,1004.43
2017-03-23T03:07:54.382Z,1004.45
2017-03-23T03:08:55.805Z,1004.40
2017-03-23T03:09:57.230Z,1004.44
2017-03-23T03:10:58.651Z,1004.41
2017-03-23T03:12:00.082Z,1004.42
2017-03-23T03:13:01.501Z,1004.41
2017-03-23T03:14:02.927Z,1004.37
2017-03-23T03:15:04.360Z,1004.38
2017-03-23T03:16:06.313Z,1004.39
2017-03-23T03:17:07.729Z,1004.40
2017-03-23T03:18:09.150Z,1004.43
2017-03-23T03:19:10.581Z,1004.49
2017-03-23T03:20:12.014Z,1004.49
2017-03-23T03:21:13.436Z,1004.53
2017-03-23T03:22:14.852Z,1004.55
2017-03-23T03:23:16.278Z,1004.55
2017-03-23T03:24:17.698Z,1004.60
2017-03-23T03:25:19.123Z,1004.63
2017-03-23T03:26:20.550Z,1004.65
2017-03-23T03:27:22.480Z,1004.67
2017-03-23T03:28:23.906Z,1004.66
2017-03-23T03:29:25.325Z,1004.67
2017-03-23T03:30:26.759Z,1004.71
2017-03-23T03:31:28.178Z,1004.65
2017-03-23T03:32:29.603Z,1004.69
2017-03-23T03:33:31.023Z,1004.71
2017-03-23T03:34:32.451Z,1004.69
2017-03-23T03:35:33.874Z,1004.68
2017-03-23T03:36:35.300Z,1004.68
2017-03-23T03:37:36.723Z,1004.69
2017-03-23T03:38:38.141Z,1004.71
2017-03-23T03:39:39.558Z,1004.71
2017-03-23T03:40:40.987Z,1004.69
2017-03-23T03:41:42.408Z,1004.71
2017-03-23T03:42:43.836Z,1004.80
2017-03-23T03:43:45.262Z,1004.77
2017-03-23T03:44:46.690Z,1004.72
2017-03-23T03:45:48.127Z,1004.77
2017-03-23T03:46:49.546Z,1004.75
2017-03-23T03:47:50.972Z,1004.80
2017-03-23T03:48:52.393Z,1004.80
2017-03-23T03:49:53.821Z,1004.80
2017-03-23T03:50:55.243Z,1004.82
2017-03-23T03:51:56.668Z,1004.83
2017-03-23T03:52:58.095Z,1004.75
2017-03-23T03:53:59.517Z,1004.83
2017-03-23T03:55:00.938Z,1004.89
2017-03-23T03:56:02.401Z,1004.91
2017-03-23T03:57:03.823Z,1004.93
2017-03-23T03:58:05.236Z,1004.90
2017-03-23T03:59:06.661Z,1004.93
2017-03-23T04:00:08.160Z,1004.89
2017-03-23T04:01:09.583Z,1004.93
2017-03-23T04:02:11.003Z,1004.88
2017-03-23T04:03:12.433Z,1004.93
2017-03-23T04:04:13.851Z,1004.96
2017-03-23T04:05:15.275Z,1004.98
2017-03-23T04:06:16.767Z,1004.97
2017-03-23T04:07:18.283Z,1005.00
2017-03-23T04:08:19.704Z,1005.01
2017-03-23T04:09:21.128Z,1005.06
2017-03-23T04:10:22.607Z,1005.01
2017-03-23T04:11:24.035Z,1005.05
2017-03-23T04:12:25.462Z,1005.09
2017-03-23T04:13:26.883Z,1005.04
2017-03-23T04:14:28.313Z,1005.03
2017-03-23T04:15:29.739Z,1005.06
2017-03-23T04:16:31.161Z,1005.06
2017-03-23T04:17:32.604Z,1005.07
2017-03-23T04:18:34.027Z,1005.07
2017-03-23T04:19:35.451Z,1005.03
2017-03-23T04:20:36.877Z,1005.06
2017-03-23T04:21:38.309Z,1005.06
2017-03-23T04:22:39.735Z,1005.06
2017-03-23T04:23:41.154Z,1005.06
2017-03-23T04:24:42.580Z,1005.11
2017-03-23T04:25:44.014Z,1005.10
2017-03-23T04:26:45.442Z,1005.10
2017-03-23T04:27:46.875Z,1005.14
2017-03-23T04:28:48.295Z,1005.13
2017-03-23T04:29:49.712Z,1005.09
2017-03-23T04:30:51.132Z,1005.12
2017-03-23T04:31:52.556Z,1005.10
2017-03-23T04:32:53.981Z,1005.06
2017-03-23T04:33:55.401Z,1005.08
2017-03-23T04:34:56.821Z,1005.10
2017-03-23T04:35:58.248Z,1005.09
2017-03-23T04:36:59.674Z,1005.12
2017-03-23T04:38:01.098Z,1005.10
2017-03-23T04:39:02.521Z,1005.12
2017-03-23T04:40:03.941Z,1005.12
2017-03-23T04:41:05.363Z,1005.11
2017-03-23T04:42:06.794Z,1005.11
2017-03-23T04:43:08.218Z,1005.07
2017-03-23T04:44:09.638Z,1005.02
2017-03-23T04:45:11.073Z,1005.05
2017-03-23T04:46:12.494Z,1005.02
2017-03-23T04:47:13.916Z,1005.06
2017-03-23T04:48:15.339Z,1005.07
2017-03-23T04:49:16.761Z,1005.08
2017-03-23T04:50:18.194Z,1005.07
2017-03-23T04:51:19.621Z,1005.03
2017-03-23T04:52:21.041Z,1005.11
2017-03-23T04:53:22.465Z,1005.07
2017-03-23T04:54:23.885Z,1005.09
2017-03-23T04:55:25.317Z,1004.99
2017-03-23T04:56:26.746Z,1005.01
2017-03-23T04:57:28.165Z,1005.04
2017-03-23T04:58:29.592Z,1005.03
2017-03-23T04:59:31.013Z,1005.06
2017-03-23T05:00:32.443Z,1005.04
2017-03-23T05:01:33.865Z,1005.00
2017-03-23T05:02:35.293Z,1005.05
2017-03-23T05:03:36.722Z,1005.02
2017-03-23T05:04:38.148Z,1004.98
2017-03-23T05:05:39.582Z,1005.03
2017-03-23T05:06:41.002Z,1004.97
2017-03-23T05:07:42.427Z,1005.03
2017-03-23T05:08:43.855Z,1004.96
2017-03-23T05:09:45.286Z,1004.95
2017-03-23T05:10:46.756Z,1004.91
2017-03-23T05:11:48.180Z,1004.90
2017-03-23T05:12:49.599Z,1004.86
2017-03-23T05:13:51.023Z,1004.84
2017-03-23T05:14:52.452Z,1004.88
2017-03-23T05:15:53.877Z,1004.87
2017-03-23T05:16:55.300Z,1004.95
2017-03-23T05:17:56.727Z,1004.97
2017-03-23T05:18:58.148Z,1004.96
2017-03-23T05:19:59.574Z,1005.02
2017-03-23T05:21:01.037Z,1005.07
2017-03-23T05:22:02.430Z,1005.09
2017-03-23T05:23:03.855Z,1005.13
2017-03-23T05:24:05.275Z,1005.12
2017-03-23T05:25:06.699Z,1005.19
2017-03-23T05:26:08.118Z,1005.17
2017-03-23T05:27:09.550Z,1005.20
2017-03-23T05:28:10.972Z,1005.16
2017-03-23T05:29:12.400Z,1005.19
2017-03-23T05:30:13.825Z,1005.18
2017-03-23T05:31:15.253Z,1005.26
2017-03-23T05:32:16.674Z,1005.17
2017-03-23T05:33:18.099Z,1005.21
2017-03-23T05:34:19.526Z,1005.22
2017-03-23T05:35:20.951Z,1005.27
2017-03-23T05:36:22.384Z,1005.29
2017-03-23T05:37:23.810Z,1005.36
2017-03-23T05:38:25.230Z,1005.31
2017-03-23T05:39:26.649Z,1005.30
2017-03-23T05:40:28.078Z,1005.31
2017-03-23T05:41:29.502Z,1005.31
2017-03-23T05:42:30.925Z,1005.30
2017-03-23T05:43:32.367Z,1005.30
2017-03-23T05:44:33.787Z,1005.26
2017-03-23T05:45:35.217Z,1005.23
2017-03-23T05:46:36.643Z,1005.25
2017-03-23T05:47:38.073Z,1005.21
2017-03-23T05:48:39.506Z,1005.28
2017-03-23T05:49:40.934Z,1005.30
2017-03-23T05:50:42.361Z,1005.31
2017-03-23T05:51:43.793Z,1005.31
2017-03-23T05:52:45.216Z,1005.31
2017-03-23T05:53:46.647Z,1005.36
2017-03-23T05:54:48.074Z,1005.39
2017-03-23T05:55:49.500Z,1005.39
2017-03-23T05:56:50.923Z,1005.38
2017-03-23T05:57:52.353Z,1005.40
2017-03-23T05:58:53.782Z,1005.36
2017-03-23T05:59:55.213Z,1005.42
2017-03-23T06:00:56.640Z,1005.39
2017-03-23T06:01:58.067Z,1005.40
2017-03-23T06:02:59.492Z,1005.37
2017-03-23T06:04:00.930Z,1005.40
2017-03-23T06:05:02.366Z,1005.43
2017-03-23T06:06:03.797Z,1005.43
2017-03-23T06:07:05.216Z,1005.44
2017-03-23T06:08:06.712Z,1005.52
2017-03-23T06:09:08.165Z,1005.51
2017-03-23T06:10:09.600Z,1005.53
2017-03-23T06:11:11.022Z,1005.57
2017-03-23T06:12:12.453Z,1005.56
2017-03-23T06:13:13.882Z,1005.54
2017-03-23T06:14:15.313Z,1005.59
2017-03-23T06:15:16.756Z,1005.62
2017-03-23T06:16:18.287Z,1005.65
2017-03-23T06:17:19.708Z,1005.63
2017-03-23T06:18:21.145Z,1005.63
2017-03-23T06:19:22.574Z,1005.68
2017-03-23T06:20:23.997Z,1005.65
2017-03-23T06:21:25.433Z,1005.67
2017-03-23T06:22:26.868Z,1005.67
2017-03-23T06:23:28.295Z,1005.72
2017-03-23T06:24:29.726Z,1005.67
2017-03-23T06:25:31.147Z,1005.73
2017-03-23T06:26:32.575Z,1005.75
2017-03-23T06:27:33.999Z,1005.74
2017-03-23T06:28:35.427Z,1005.78
2017-03-23T06:29:36.851Z,1005.83
2017-03-23T06:30:38.283Z,1005.82
2017-03-23T06:31:39.711Z,1005.83
2017-03-23T06:32:41.146Z,1005.86
2017-03-23T06:33:42.570Z,1005.89
2017-03-23T06:34:44.002Z,1005.91
2017-03-23T06:35:45.433Z,1005.92
2017-03-23T06:36:46.860Z,1005.89
2017-03-23T06:37:48.283Z,1005.92
2017-03-23T06:38:49.711Z,1005.93
2017-03-23T06:39:51.132Z,1005.92
2017-03-23T06:40:52.580Z,1005.95
2017-03-23T06:41:54.026Z,1005.98
2017-03-23T06:42:55.448Z,1005.98
2017-03-23T06:43:56.878Z,1005.99
2017-03-23T06:44:58.303Z,1006.02
2017-03-23T06:45:59.736Z,1005.96
2017-03-23T06:47:01.166Z,1005.99
2017-03-23T06:48:02.618Z,1006.04
2017-03-23T06:49:04.048Z,1006.03
2017-03-23T06:50:05.478Z,1006.04
2017-03-23T06:51:06.909Z,1006.05
2017-03-23T06:52:08.341Z,1006.08
2017-03-23T06:53:09.770Z,1006.07
2017-03-23T06:54:11.204Z,1006.07
2017-03-23T06:55:12.643Z,1006.15
2017-03-23T06:56:14.075Z,1006.08
2017-03-23T06:57:15.507Z,1006.12
2017-03-23T06:58:16.932Z,1006.13
2017-03-23T06:59:18.358Z,1006.15
2017-03-23T07:00:19.787Z,1006.11
2017-03-23T07:01:21.213Z,1006.18
2017-03-23T07:02:22.649Z,1006.19
2017-03-23T07:03:24.076Z,1006.14
2017-03-23T07:04:25.507Z,1006.22
2017-03-23T07:05:26.946Z,1006.24
2017-03-23T07:06:28.374Z,1006.31
2017-03-23T07:07:29.807Z,1006.27
2017-03-23T07:08:31.236Z,1006.28
2017-03-23T07:09:32.664Z,1006.28
2017-03-23T07:10:34.096Z,1006.26
2017-03-23T07:11:35.521Z,1006.27
2017-03-23T07:12:36.957Z,1006.27
2017-03-23T07:13:38.389Z,1006.25
2017-03-23T07:14:40.326Z,1006.25
2017-03-23T07:15:41.756Z,1006.21
2017-03-23T07:16:44.138Z,1006.29
2017-03-23T07:17:45.565Z,1006.29
2017-03-23T07:18:46.991Z,1006.29
2017-03-23T07:19:48.427Z,1006.29
2017-03-23T07:20:49.861Z,1006.30
2017-03-23T07:21:51.286Z,1006.27
2017-03-23T07:22:52.722Z,1006.27
2017-03-23T07:23:54.146Z,1006.27
2017-03-23T07:24:55.574Z,1006.29
2017-03-23T07:25:57.004Z,1006.26
2017-03-23T07:26:58.470Z,1006.31
2017-03-23T07:27:59.866Z,1006.29
2017-03-23T07:29:01.321Z,1006.29
2017-03-23T07:30:02.721Z,1006.30
2017-03-23T07:31:04.154Z,1006.34
2017-03-23T07:32:05.593Z,1006.37
2017-03-23T07:33:07.995Z,1006.36
2017-03-23T07:34:09.425Z,1006.35
2017-03-23T07:35:10.852Z,1006.36
2017-03-23T07:36:12.286Z,1006.36
2017-03-23T07:37:13.719Z,1006.39
2017-03-23T07:38:15.146Z,1006.38
2017-03-23T07:39:16.574Z,1006.44
2017-03-23T07:40:18.009Z,1006.39
2017-03-23T07:41:19.439Z,1006.41
2017-03-23T07:42:20.870Z,1006.41
2017-03-23T07:43:22.302Z,1006.41
2017-03-23T07:44:23.733Z,1006.40
2017-03-23T07:45:25.171Z,1006.41
2017-03-23T07:46:26.613Z,1006.41
2017-03-23T07:47:28.043Z,1006.48
2017-03-23T07:48:29.475Z,1006.47
2017-03-23T07:49:30.910Z,1006.44
2017-03-23T07:50:32.341Z,1006.51
2017-03-23T07:51:33.776Z,1006.52
2017-03-23T07:52:35.208Z,1006.53
2017-03-23T07:53:36.631Z,1006.54
2017-03-23T07:54:38.068Z,1006.56
2017-03-23T07:55:39.499Z,1006.55
2017-03-23T07:56:40.923Z,1006.54
2017-03-23T07:57:42.349Z,1006.57
2017-03-23T07:58:44.439Z,1006.56
2017-03-23T07:59:45.877Z,1006.52
2017-03-23T08:00:48.006Z,1006.56
2017-03-23T08:01:50.737Z,1006.55
2017-03-23T08:02:52.837Z,1006.58
2017-03-23T08:03:54.899Z,1006.57
2017-03-23T08:16:48.949Z,1006.67
2017-03-23T08:17:50.373Z,1006.69
2017-03-23T08:18:51.795Z,1006.63
2017-03-23T08:19:53.220Z,1006.65
2017-03-23T08:20:54.650Z,1006.64
2017-03-23T08:21:56.071Z,1006.64
2017-03-23T08:22:57.541Z,1006.66
2017-03-23T08:23:59.024Z,1006.62
2017-03-23T08:25:00.463Z,1006.62
2017-03-23T08:26:01.939Z,1006.61
2017-03-23T08:27:03.398Z,1006.65
2017-03-23T08:28:04.906Z,1006.58
2017-03-23T08:29:06.349Z,1006.60
2017-03-23T08:30:07.864Z,1006.62
2017-03-23T08:31:09.286Z,1006.58
2017-03-23T08:32:10.713Z,1006.60
2017-03-23T08:33:12.134Z,1006.55
2017-03-23T08:34:13.552Z,1006.59
2017-03-23T08:35:14.977Z,1006.58
2017-03-23T08:36:16.402Z,1006.62
2017-03-23T08:37:17.819Z,1006.65
2017-03-23T08:38:19.258Z,1006.64
2017-03-23T08:39:20.676Z,1006.63
2017-03-23T08:40:22.098Z,1006.67
2017-03-23T08:41:23.551Z,1006.69
2017-03-23T08:42:24.977Z,1006.69
2017-03-23T08:43:26.396Z,1006.72
2017-03-23T08:44:27.822Z,1006.70
2017-03-23T08:45:29.249Z,1006.71
2017-03-23T08:46:30.670Z,1006.70
2017-03-23T08:47:32.094Z,1006.69
2017-03-23T08:48:33.517Z,1006.68
2017-03-23T08:49:34.944Z,1006.69
2017-03-23T08:50:36.373Z,1006.70
2017-03-23T08:51:37.791Z,1006.74
2017-03-23T08:52:39.222Z,1006.71
2017-03-23T08:53:40.645Z,1006.70
2017-03-23T08:54:42.077Z,1006.69
2017-03-23T08:55:43.504Z,1006.76
2017-03-23T08:56:44.926Z,1006.73
2017-03-23T08:57:46.349Z,1006.65
2017-03-23T08:58:47.783Z,1006.68
2017-03-23T08:59:49.210Z,1006.68
2017-03-23T09:00:50.637Z,1006.66
2017-03-23T09:01:52.056Z,1006.67
2017-03-23T09:02:53.489Z,1006.65
2017-03-23T09:03:54.911Z,1006.67
2017-03-23T09:04:56.338Z,1006.64
2017-03-23T09:05:57.774Z,1006.68
2017-03-23T09:06:59.207Z,1006.67
2017-03-23T09:08:00.628Z,1006.69
2017-03-23T09:09:02.051Z,1006.63
2017-03-23T09:10:03.473Z,1006.64
2017-03-23T09:11:04.907Z,1006.66
2017-03-23T09:12:06.327Z,1006.71
2017-03-23T09:13:07.756Z,1006.74
2017-03-23T09:14:09.190Z,1006.71
2017-03-23T09:15:10.621Z,1006.71
2017-03-23T09:16:12.045Z,1006.71
2017-03-23T09:17:13.469Z,1006.77
2017-03-23T09:18:14.893Z,1006.76
2017-03-23T09:19:16.317Z,1006.78
2017-03-23T09:20:17.764Z,1006.75
2017-03-23T09:21:19.187Z,1006.77
2017-03-23T09:22:20.616Z,1006.81
2017-03-23T09:23:22.039Z,1006.79
2017-03-23T09:24:23.461Z,1006.83
2017-03-23T09:25:24.889Z,1006.78
2017-03-23T09:26:26.425Z,1006.82
2017-03-23T09:27:27.846Z,1006.85
2017-03-23T09:28:29.268Z,1006.79
2017-03-23T09:29:30.697Z,1006.81
2017-03-23T09:30:32.124Z,1006.80
2017-03-23T09:31:33.552Z,1006.83
2017-03-23T09:32:34.981Z,1006.86
2017-03-23T09:33:36.405Z,1006.80
2017-03-23T09:34:37.838Z,1006.91
2017-03-23T09:35:39.263Z,1006.96
2017-03-23T09:36:40.693Z,1006.88
2017-03-23T09:37:42.116Z,1006.89
2017-03-23T09:38:43.546Z,1006.97
2017-03-23T09:39:44.972Z,1006.96
2017-03-23T09:40:46.402Z,1006.94
2017-03-23T09:41:47.830Z,1006.90
2017-03-23T09:42:49.260Z,1006.93
2017-03-23T09:43:50.693Z,1006.93
2017-03-23T09:44:52.119Z,1006.90
2017-03-23T09:45:53.556Z,1006.90
2017-03-23T09:46:54.997Z,1006.89
2017-03-23T09:47:56.428Z,1006.92
2017-03-23T09:48:57.852Z,1006.90
2017-03-23T09:49:59.277Z,1006.91
2017-03-23T09:51:00.704Z,1006.90
2017-03-23T09:52:02.130Z,1006.89
2017-03-23T09:53:03.557Z,1006.94
2017-03-23T09:54:04.984Z,1006.90
2017-03-23T09:55:06.411Z,1006.95
2017-03-23T09:56:07.840Z,1006.96
2017-03-23T09:57:09.265Z,1006.93
2017-03-23T09:58:10.690Z,1006.92
2017-03-23T09:59:12.120Z,1006.95
2017-03-23T10:00:13.545Z,1006.95
2017-03-23T10:01:14.979Z,1006.95
2017-03-23T10:02:16.402Z,1006.95
2017-03-23T10:03:17.832Z,1006.91
2017-03-23T10:04:19.263Z,1006.90
2017-03-23T10:05:20.703Z,1006.93
2017-03-23T10:06:22.132Z,1006.93
2017-03-23T10:07:23.554Z,1006.88
2017-03-23T10:08:24.984Z,1006.92
2017-03-23T10:09:26.411Z,1006.94
2017-03-23T10:10:27.840Z,1006.93
2017-03-23T10:11:29.265Z,1006.90
2017-03-23T10:12:30.691Z,1006.94
2017-03-23T10:13:32.125Z,1006.91
2017-03-23T10:14:33.552Z,1006.92
2017-03-23T10:15:34.990Z,1006.88
2017-03-23T10:16:36.416Z,1006.87
2017-03-23T10:17:37.838Z,1006.86
2017-03-23T10:18:39.265Z,1006.89
2017-03-23T10:19:40.693Z,1006.90
2017-03-23T10:20:42.120Z,1006.88
2017-03-23T10:21:43.556Z,1006.83
2017-03-23T10:22:44.984Z,1006.83
2017-03-23T10:23:46.409Z,1006.83
2017-03-23T10:24:47.849Z,1006.84
2017-03-23T10:25:49.275Z,1006.80
2017-03-23T10:26:50.699Z,1006.80
2017-03-23T10:27:52.130Z,1006.84
2017-03-23T10:28:53.560Z,1006.87
2017-03-23T10:29:55.003Z,1006.87
2017-03-23T10:30:56.430Z,1006.81
2017-03-23T10:31:57.859Z,1006.84
2017-03-23T10:32:59.277Z,1006.85
2017-03-23T10:34:00.714Z,1006.85
2017-03-23T10:35:02.197Z,1006.88
2017-03-23T10:36:03.627Z,1006.90
2017-03-23T10:37:05.051Z,1006.80
2017-03-23T10:38:06.485Z,1006.85
2017-03-23T10:39:07.912Z,1006.85
2017-03-23T10:40:09.343Z,1006.79
2017-03-23T10:41:10.835Z,1006.84
2017-03-23T10:42:12.317Z,1006.81
2017-03-23T10:43:13.742Z,1006.81
2017-03-23T10:44:15.162Z,1006.81
2017-03-23T10:45:16.673Z,1006.80
2017-03-23T10:46:18.095Z,1006.76
2017-03-23T10:47:19.521Z,1006.84
2017-03-23T10:48:20.948Z,1006.82
2017-03-23T10:49:22.395Z,1006.77
2017-03-23T10:50:23.823Z,1006.79
2017-03-23T10:51:25.247Z,1006.80
2017-03-23T10:52:26.682Z,1006.75
2017-03-23T10:53:28.109Z,1006.75
2017-03-23T10:54:29.549Z,1006.75
2017-03-23T10:55:30.992Z,1006.72
2017-03-23T10:56:32.431Z,1006.78
2017-03-23T10:57:33.856Z,1006.80
2017-03-23T10:58:35.292Z,1006.82
2017-03-23T10:59:36.732Z,1006.80
2017-03-23T11:00:38.926Z,1006.81
2017-03-23T11:01:40.365Z,1006.82
2017-03-23T11:02:41.808Z,1006.80
2017-03-23T11:03:43.235Z,1006.76
2017-03-23T11:04:44.665Z,1006.77
2017-03-23T11:05:46.095Z,1006.79
2017-03-23T11:06:47.523Z,1006.80
2017-03-23T11:07:48.949Z,1006.80
2017-03-23T11:08:50.382Z,1006.77
2017-03-23T11:09:51.818Z,1006.79
2017-03-23T11:10:53.245Z,1006.78
2017-03-23T11:11:54.672Z,1006.78
2017-03-23T11:12:56.099Z,1006.80
2017-03-23T11:13:57.531Z,1006.80
2017-03-23T11:14:58.963Z,1006.81
2017-03-23T11:16:00.402Z,1006.81
2017-03-23T11:17:01.834Z,1006.81
2017-03-23T11:18:03.269Z,1006.82
2017-03-23T11:19:04.701Z,1006.78
2017-03-23T11:20:06.131Z,1006.75
2017-03-23T11:21:07.557Z,1006.78
2017-03-23T11:22:08.982Z,1006.73
2017-03-23T11:23:10.407Z,1006.71
2017-03-23T11:24:11.831Z,1006.72
2017-03-23T11:25:13.259Z,1006.69
2017-03-23T11:26:14.692Z,1006.71
2017-03-23T11:27:16.120Z,1006.74
2017-03-23T11:28:17.558Z,1006.77
2017-03-23T11:29:18.981Z,1006.76
2017-03-23T11:30:20.406Z,1006.71
2017-03-23T11:31:21.839Z,1006.81
2017-03-23T11:32:23.264Z,1006.80
2017-03-23T11:33:24.692Z,1006.83
2017-03-23T11:34:26.120Z,1006.80
2017-03-23T11:35:27.572Z,1006.82
2017-03-23T11:36:28.991Z,1006.83
2017-03-23T11:37:30.418Z,1006.83
2017-03-23T11:38:31.851Z,1006.89
2017-03-23T11:39:33.288Z,1006.84
2017-03-23T11:40:34.717Z,1006.87
2017-03-23T11:41:36.152Z,1006.84
2017-03-23T11:42:37.581Z,1006.83
2017-03-23T11:43:39.013Z,1006.88
2017-03-23T11:44:40.455Z,1006.93
2017-03-23T11:45:41.894Z,1006.85
2017-03-23T11:46:43.323Z,1006.83
2017-03-23T11:47:44.762Z,1006.82
2017-03-23T11:48:46.185Z,1006.90
2017-03-23T11:49:47.654Z,1006.95
2017-03-23T11:50:49.055Z,1006.94
2017-03-23T11:51:50.514Z,1006.94
2017-03-23T11:52:51.946Z,1006.90
2017-03-23T11:53:53.374Z,1006.97
2017-03-23T11:54:54.877Z,1006.95
2017-03-23T11:55:56.323Z,1006.96
2017-03-23T11:56:57.751Z,1006.98
2017-03-23T11:57:59.181Z,1006.94
2017-03-23T11:59:00.626Z,1006.97
2017-03-23T12:00:02.053Z,1007.00
2017-03-23T12:01:03.493Z,1006.95
2017-03-23T12:02:04.985Z,1006.97
2017-03-23T12:03:06.416Z,1006.97
2017-03-23T12:04:07.841Z,1006.92
2017-03-23T12:05:09.966Z,1006.97
2017-03-23T12:06:11.393Z,1006.94
2017-03-23T12:07:12.833Z,1006.93
2017-03-23T12:08:14.263Z,1006.85
2017-03-23T12:09:15.689Z,1006.90
2017-03-23T12:10:17.115Z,1006.84
2017-03-23T12:11:18.548Z,1006.81
2017-03-23T12:12:19.998Z,1006.82
2017-03-23T12:13:21.424Z,1006.82
2017-03-23T12:14:22.862Z,1006.86
2017-03-23T12:15:24.296Z,1006.86
2017-03-23T12:16:25.720Z,1006.88
2017-03-23T12:17:27.154Z,1006.88
2017-03-23T12:18:28.595Z,1006.84
2017-03-23T12:19:30.023Z,1006.79
2017-03-23T12:20:31.457Z,1006.83
2017-03-23T12:21:32.887Z,1006.84
2017-03-23T12:22:34.319Z,1006.87
2017-03-23T12:23:35.750Z,1006.77
2017-03-23T12:24:37.177Z,1006.82
2017-03-23T12:25:38.610Z,1006.80
2017-03-23T12:26:40.041Z,1006.79
2017-03-23T12:27:41.476Z,1006.78
2017-03-23T12:28:42.901Z,1006.80
2017-03-23T12:29:44.332Z,1006.82
2017-03-23T12:30:45.778Z,1006.80
2017-03-23T12:31:47.204Z,1006.82
2017-03-23T12:32:48.635Z,1006.72
2017-03-23T12:33:50.063Z,1006.79
2017-03-23T12:34:51.499Z,1006.75